首页
METAR-TAF:

METAR-TAF

机场 :

金奈国际机场

金奈, 印度

纬度: 13-00N, 经度: 080-11E, 海拔: 10米

当前天气观测

该预报发布于25分钟前的00:00 UTC
风速3节,风向西南
温度 25°C
湿度 89%
气压 1011 hPa
能見度: 6000
少量云层高于2000英尺

METAR: VOMM 190000Z 23003KT 6000 FEW020 25/23 Q1011 NOSIG

时间: 05:55 (00:25 UTC)

预报

该预报发布于1小时和25分钟前的23:00 UTC
预报有效从19日的 00点(UTC)到 20日的 06点(UTC)
风速5节,风向南转西南
能見度: 3000
少量云层高于2000英尺
轻雾
成为
从 19日的 03点(UTC)到 19日的 04点(UTC)
能見度: 5000
成为
从 19日的 05点(UTC)到 19日的 06点(UTC)
风速10节,风向东转东南
能見度: 6000
成为
从 19日的 21点(UTC)到 19日的 22点(UTC)
风速5节,风向南转西南
能見度: 5000
成为
从 20日的 00点(UTC)到 20日的 01点(UTC)
能見度: 3000
轻雾
成为
从 20日的 03点(UTC)到 20日的 04点(UTC)
能見度: 5000

TAF: VOMM 182300Z 1900/2006 21005KT 3000 BR FEW020 BECMG 1903/1904 5000 HZ BECMG 1905/1906 12010KT 6000 BECMG 1921/1922 21005KT 5000 HZ BECMG 2000/2001 3000 BR BECMG 2003/2004 5000 HZ

超过4000个机场的气象观测和天气预报(METAR&TAF报告)。

可查询的气象台以黄色和红色小点在地图上表示。

将鼠标移到小点上方,可查看气象台名称。

然后点击查看天气观测和预报。

如需切换地图:点击带黑十字的绿色按钮放大地图;点击带横线的绿色按钮缩小地图;或者点击绿色箭头查看邻近地区的地图。


METAR-TAF: